Decoded Metar for KMCB (MCCOMB in MS, USA) (IATA:MCB) | Meteo·Mobile Aviation Weather
aviador You're here:

KMCB Decoded Metar

MCCOMB in MS, USA
Report Time2019-04-23 15:53:00
UTC Time2019-04-23 16:17:55
Flight Rules vfr VFR
WindVRB at 03 kt
Visibility9999 m
Phenomena:N/A
Clouds:N/A
Expected CloudBase > 2,800 ft AGL from Temp-Dew spread
CeilingNone
Temp21°C (ISA +7)
Dew Point14°C (64% RH)
QNH1021 hPa
Density Alt1,148 ft
Elevation407 ft
Report Wrong Elevation
Raw Report
KMCB 231553Z AUTO VRB03KT 10SM CLR 21/14 A3016 RMK AO2 SLP210
T02110139=

Extra information for KMCB:More info

Metar Taf Metar & Taf Last 4 Metars F.Rules Stats Wind Profile Meteogram Temp Stats Airport Information Weather charts Add Link Nearby VenuesMetar ALERT Operation Metar Decoded Social comments

AIRNAV info for KMCB